createdAt,value
2023-02-01T00:00:58.553Z,14.91
2023-02-01T00:03:25.455Z,14.87
2023-02-01T00:05:59.678Z,14.86
2023-02-01T00:08:27.304Z,14.84
2023-02-01T00:11:02.548Z,14.81
2023-02-01T00:13:31.412Z,14.79
2023-02-01T00:16:26.339Z,14.75
2023-02-01T00:18:58.781Z,14.74
2023-02-01T00:21:25.728Z,14.72
2023-02-01T00:23:52.569Z,14.70
2023-02-01T00:26:43.630Z,14.66
2023-02-01T00:29:14.307Z,14.63
2023-02-01T00:31:41.458Z,14.63
2023-02-01T00:34:09.974Z,14.61
2023-02-01T00:36:36.873Z,14.56
2023-02-01T00:39:03.996Z,14.58
2023-02-01T00:41:30.861Z,14.57
2023-02-01T00:43:57.703Z,14.57
2023-02-01T00:46:25.212Z,14.54
2023-02-01T00:48:52.356Z,14.52
2023-02-01T00:51:22.669Z,14.53
2023-02-01T00:53:50.034Z,14.50
2023-02-01T00:56:16.979Z,14.50
2023-02-01T00:58:46.078Z,14.49
2023-02-01T01:01:18.443Z,14.48
2023-02-01T01:03:56.988Z,14.44
2023-02-01T01:06:26.751Z,14.42
2023-02-01T01:08:55.220Z,14.44
2023-02-01T01:11:25.095Z,14.42
2023-02-01T01:13:52.977Z,14.42
2023-02-01T01:16:21.582Z,14.42
2023-02-01T01:18:48.705Z,14.42
2023-02-01T01:21:17.020Z,14.41
2023-02-01T01:23:45.006Z,14.41
2023-02-01T01:26:24.058Z,14.39
2023-02-01T01:28:51.689Z,14.39
2023-02-01T01:31:20.827Z,14.39
2023-02-01T01:33:56.258Z,14.38
2023-02-01T01:36:23.494Z,14.37
2023-02-01T01:38:50.528Z,14.36
2023-02-01T01:41:20.489Z,14.33
2023-02-01T01:43:47.255Z,14.35
2023-02-01T01:46:18.778Z,14.32
2023-02-01T01:48:46.986Z,14.34
2023-02-01T01:51:18.439Z,14.34
2023-02-01T01:53:55.405Z,14.34
2023-02-01T01:56:23.365Z,14.34
2023-02-01T01:58:50.324Z,14.33
2023-02-01T02:01:17.815Z,14.33
2023-02-01T02:03:46.946Z,14.31
2023-02-01T02:06:28.829Z,14.31
2023-02-01T02:08:55.739Z,14.31
2023-02-01T02:11:22.827Z,14.32
2023-02-01T02:13:53.436Z,14.32
2023-02-01T02:16:57.232Z,14.30
2023-02-01T02:20:01.820Z,14.30
2023-02-01T02:22:59.540Z,14.32
2023-02-01T02:25:45.773Z,14.32
2023-02-01T02:28:50.120Z,14.31
2023-02-01T02:31:42.902Z,14.31
2023-02-01T02:34:46.882Z,14.33
2023-02-01T02:37:16.764Z,14.32
2023-02-01T02:39:50.504Z,14.30
2023-02-01T02:42:48.057Z,14.30
2023-02-01T02:46:19.123Z,14.31
2023-02-01T02:48:48.231Z,14.32
2023-02-01T02:51:55.288Z,14.32
2023-02-01T02:54:48.772Z,14.32
2023-02-01T02:58:03.626Z,14.32
2023-02-01T03:00:52.384Z,14.34
2023-02-01T03:03:37.909Z,14.33
2023-02-01T03:06:06.901Z,14.32
2023-02-01T03:08:33.790Z,14.34
2023-02-01T03:11:07.909Z,14.33
2023-02-01T03:13:53.020Z,14.32
2023-02-01T03:16:42.926Z,14.34
2023-02-01T03:19:50.635Z,14.33
2023-02-01T03:22:27.869Z,14.33
2023-02-01T03:25:04.067Z,14.34
2023-02-01T03:27:44.829Z,14.34
2023-02-01T03:30:22.618Z,14.35
2023-02-01T03:33:01.698Z,14.36
2023-02-01T03:36:02.620Z,14.37
2023-02-01T03:38:42.404Z,14.39
2023-02-01T03:41:21.104Z,14.38
2023-02-01T03:43:59.985Z,14.39
2023-02-01T03:46:36.448Z,14.39
2023-02-01T03:49:10.114Z,14.40
2023-02-01T03:51:39.883Z,14.40
2023-02-01T03:54:10.864Z,14.39
2023-02-01T03:56:42.653Z,14.41
2023-02-01T03:59:09.840Z,14.41
2023-02-01T04:01:36.694Z,14.43
2023-02-01T04:04:03.722Z,14.45
2023-02-01T04:06:30.723Z,14.44
2023-02-01T04:08:57.570Z,14.45
2023-02-01T04:11:24.445Z,14.46
2023-02-01T04:13:51.215Z,14.46
2023-02-01T04:16:18.031Z,14.47
2023-02-01T04:18:44.924Z,14.46
2023-02-01T04:21:11.742Z,14.47
2023-02-01T04:23:38.521Z,14.48
2023-02-01T04:26:06.113Z,14.47
2023-02-01T04:28:32.939Z,14.47
2023-02-01T04:31:00.184Z,14.48
2023-02-01T04:33:27.323Z,14.48
2023-02-01T04:35:54.198Z,14.47
2023-02-01T04:38:21.085Z,14.51
2023-02-01T04:40:49.312Z,14.52
2023-02-01T04:43:17.544Z,14.53
2023-02-01T04:45:51.264Z,14.51
2023-02-01T04:48:19.577Z,14.54
2023-02-01T04:50:49.861Z,14.54
2023-02-01T04:53:16.973Z,14.54
2023-02-01T04:55:44.939Z,14.53
2023-02-01T04:58:12.021Z,14.54
2023-02-01T05:00:38.973Z,14.54
2023-02-01T05:03:06.383Z,14.56
2023-02-01T05:05:33.223Z,14.56
2023-02-01T05:08:00.129Z,14.55
2023-02-01T05:10:26.991Z,14.58
2023-02-01T05:13:12.595Z,14.57
2023-02-01T05:15:39.469Z,14.60
2023-02-01T05:18:06.444Z,14.58
2023-02-01T05:20:33.335Z,14.60
2023-02-01T05:23:00.217Z,14.61
2023-02-01T05:25:27.054Z,14.60
2023-02-01T05:27:54.851Z,14.62
2023-02-01T05:30:22.262Z,14.61
2023-02-01T05:32:53.694Z,14.62
2023-02-01T05:35:20.661Z,14.63
2023-02-01T05:37:47.582Z,14.63
2023-02-01T05:40:14.538Z,14.69
2023-02-01T05:42:41.482Z,14.76
2023-02-01T05:45:09.074Z,14.80
2023-02-01T05:47:35.891Z,14.83
2023-02-01T05:50:04.053Z,14.88
2023-02-01T05:52:31.364Z,14.85
2023-02-01T05:54:58.160Z,14.79
2023-02-01T05:57:25.025Z,14.80
2023-02-01T05:59:51.822Z,14.80
2023-02-01T06:02:18.720Z,14.81
2023-02-01T06:04:45.556Z,14.84
2023-02-01T06:07:12.736Z,14.85
2023-02-01T06:09:39.702Z,14.87
2023-02-01T06:12:06.933Z,14.88
2023-02-01T06:14:33.821Z,14.93
2023-02-01T06:17:01.074Z,14.96
2023-02-01T06:19:27.952Z,14.96
2023-02-01T06:21:54.820Z,15.00
2023-02-01T06:24:21.636Z,15.05
2023-02-01T06:26:48.448Z,15.08
2023-02-01T06:29:15.407Z,15.12
2023-02-01T06:31:44.040Z,15.12
2023-02-01T06:34:10.893Z,15.14
2023-02-01T06:36:37.904Z,15.19
2023-02-01T06:39:04.966Z,15.25
2023-02-01T06:41:31.858Z,15.27
2023-02-01T06:43:58.793Z,15.30
2023-02-01T06:46:25.798Z,15.32
2023-02-01T06:48:52.684Z,15.34
2023-02-01T06:51:25.936Z,15.35
2023-02-01T06:53:53.218Z,15.37
2023-02-01T06:56:21.015Z,15.40
2023-02-01T06:58:48.322Z,15.42
2023-02-01T07:01:15.902Z,15.44
2023-02-01T07:03:43.343Z,15.43
2023-02-01T07:06:11.341Z,15.45
2023-02-01T07:08:39.105Z,15.46
2023-02-01T07:11:14.871Z,15.36
2023-02-01T07:13:41.928Z,15.13
2023-02-01T07:16:13.489Z,14.97
2023-02-01T07:18:40.875Z,14.80
2023-02-01T07:21:07.877Z,14.76
2023-02-01T07:23:34.802Z,14.64
2023-02-01T07:26:04.455Z,14.53
2023-02-01T07:28:34.168Z,14.41
2023-02-01T07:31:09.525Z,14.56
2023-02-01T07:33:36.613Z,14.67
2023-02-01T07:36:06.516Z,14.72
2023-02-01T07:38:33.564Z,14.73
2023-02-01T07:41:05.352Z,14.75
2023-02-01T07:43:34.351Z,14.75
2023-02-01T07:46:02.626Z,14.75
2023-02-01T07:48:30.449Z,14.73
2023-02-01T07:51:09.821Z,14.73
2023-02-01T07:53:37.481Z,14.75
2023-02-01T07:56:05.509Z,14.74
2023-02-01T07:58:32.463Z,14.72
2023-02-01T08:01:17.950Z,14.73
2023-02-01T08:03:44.959Z,14.71
2023-02-01T08:06:11.928Z,14.71
2023-02-01T08:08:39.246Z,14.68
2023-02-01T08:11:07.650Z,14.68
2023-02-01T08:13:36.528Z,14.67
2023-02-01T08:16:07.026Z,14.68
2023-02-01T08:18:34.995Z,14.67
2023-02-01T08:21:06.970Z,14.66
2023-02-01T08:23:35.594Z,14.65
2023-02-01T08:26:17.675Z,14.67
2023-02-01T08:28:48.405Z,14.67
2023-02-01T08:31:17.726Z,14.66
2023-02-01T08:33:48.916Z,14.67
2023-02-01T08:36:15.708Z,14.68
2023-02-01T08:38:42.664Z,14.66
2023-02-01T08:41:15.359Z,14.66
2023-02-01T08:43:42.706Z,14.66
2023-02-01T08:46:10.902Z,14.64
2023-02-01T08:48:38.595Z,14.66
2023-02-01T08:51:08.634Z,14.66
2023-02-01T08:53:35.603Z,14.64
2023-02-01T08:56:02.626Z,14.66
2023-02-01T08:58:29.850Z,14.64
2023-02-01T09:00:56.792Z,14.66
2023-02-01T09:03:23.837Z,14.65
2023-02-01T09:05:51.966Z,14.64
2023-02-01T09:08:21.481Z,14.65
2023-02-01T09:10:48.459Z,14.63
2023-02-01T09:13:15.468Z,14.64
2023-02-01T09:15:42.539Z,14.62
2023-02-01T09:18:09.478Z,14.61
2023-02-01T09:20:38.685Z,14.62
2023-02-01T09:23:07.950Z,14.58
2023-02-01T09:25:34.935Z,14.60
2023-02-01T09:28:02.069Z,14.59
2023-02-01T09:30:30.521Z,14.60
2023-02-01T09:32:58.223Z,14.60
2023-02-01T09:35:25.125Z,14.60
2023-02-01T09:37:54.292Z,14.59
2023-02-01T09:40:23.091Z,14.57
2023-02-01T09:42:58.929Z,14.58
2023-02-01T09:45:37.108Z,14.57
2023-02-01T09:48:13.636Z,14.56
2023-02-01T09:50:44.703Z,14.58
2023-02-01T09:53:23.274Z,14.56
2023-02-01T09:55:52.829Z,14.55
2023-02-01T09:58:28.876Z,14.55
2023-02-01T10:01:02.084Z,14.54
2023-02-01T10:03:31.793Z,14.54
2023-02-01T10:06:18.022Z,14.55
2023-02-01T10:09:15.770Z,14.54
2023-02-01T10:12:04.046Z,14.54
2023-02-01T10:14:51.123Z,14.54
2023-02-01T10:17:31.927Z,14.54
2023-02-01T10:20:09.199Z,14.53
2023-02-01T10:23:10.742Z,14.52
2023-02-01T10:26:03.475Z,14.51
2023-02-01T10:28:35.264Z,14.49
2023-02-01T10:31:03.355Z,14.49
2023-02-01T10:33:43.100Z,14.49
2023-02-01T10:36:53.643Z,14.50
2023-02-01T10:39:20.688Z,14.50
2023-02-01T10:41:48.553Z,14.51
2023-02-01T10:44:18.098Z,14.50
2023-02-01T10:46:45.098Z,14.50
2023-02-01T10:49:22.200Z,14.50
2023-02-01T10:52:08.971Z,14.50
2023-02-01T10:54:39.612Z,14.51
2023-02-01T10:57:30.905Z,14.50
2023-02-01T10:59:57.873Z,14.51
2023-02-01T11:02:30.326Z,14.48
2023-02-01T11:05:06.211Z,14.46
2023-02-01T11:07:34.067Z,14.47
2023-02-01T11:10:01.018Z,14.47
2023-02-01T11:12:39.385Z,14.46
2023-02-01T11:15:24.706Z,14.46
2023-02-01T11:17:54.786Z,14.44
2023-02-01T11:20:53.283Z,14.45
2023-02-01T11:23:29.978Z,14.44
2023-02-01T11:26:03.997Z,14.45
2023-02-01T11:28:36.672Z,14.45
2023-02-01T11:31:07.148Z,14.43
2023-02-01T11:33:38.237Z,14.43
2023-02-01T11:36:17.080Z,14.44
2023-02-01T11:39:10.530Z,14.43
2023-02-01T11:41:58.264Z,14.43
2023-02-01T11:44:35.737Z,14.42
2023-02-01T11:47:32.941Z,14.43
2023-02-01T11:50:02.818Z,14.43
2023-02-01T11:52:45.626Z,14.40
2023-02-01T11:55:12.594Z,14.41
2023-02-01T11:57:58.584Z,14.41
2023-02-01T12:00:34.734Z,14.40
2023-02-01T12:03:13.787Z,14.39
2023-02-01T12:06:08.221Z,14.38
2023-02-01T12:08:59.935Z,14.40
2023-02-01T12:11:49.914Z,14.40
2023-02-01T12:14:45.554Z,14.40
2023-02-01T12:17:38.417Z,14.42
2023-02-01T12:20:11.056Z,14.42
2023-02-01T12:22:41.101Z,14.42
2023-02-01T12:25:16.163Z,14.44
2023-02-01T12:27:54.898Z,14.43
2023-02-01T12:30:59.151Z,14.44
2023-02-01T12:33:28.966Z,14.45
2023-02-01T12:36:10.672Z,14.45
2023-02-01T12:38:52.921Z,14.48
2023-02-01T12:41:40.249Z,14.45
2023-02-01T12:44:34.584Z,14.47
2023-02-01T12:47:25.988Z,14.48
2023-02-01T12:49:52.886Z,14.48
2023-02-01T12:52:45.878Z,14.48
2023-02-01T12:55:24.385Z,14.45
2023-02-01T12:58:18.423Z,14.45
2023-02-01T13:00:50.487Z,14.46
2023-02-01T13:03:48.180Z,14.47
2023-02-01T13:06:18.654Z,14.46
2023-02-01T13:08:54.316Z,14.45
2023-02-01T13:11:39.586Z,14.47
2023-02-01T13:14:51.747Z,14.47
2023-02-01T13:17:29.640Z,14.46
2023-02-01T13:20:04.009Z,14.46
2023-02-01T13:22:35.436Z,14.47
2023-02-01T13:25:09.208Z,14.45
2023-02-01T13:27:36.323Z,14.48
2023-02-01T13:30:19.555Z,14.47
2023-02-01T13:33:52.402Z,14.48
2023-02-01T13:35:40.280Z,14.48
2023-02-01T13:38:27.068Z,14.47
2023-02-01T13:41:25.684Z,14.46
2023-02-01T13:43:56.765Z,14.46
2023-02-01T13:46:24.106Z,14.48
2023-02-01T13:49:02.223Z,14.48
2023-02-01T13:51:47.185Z,14.47
2023-02-01T13:54:27.565Z,14.52
2023-02-01T13:56:56.046Z,14.57
2023-02-01T13:59:41.032Z,14.58
2023-02-01T14:02:37.822Z,14.58
2023-02-01T14:05:09.251Z,14.56
2023-02-01T14:07:36.367Z,14.59
2023-02-01T14:10:40.403Z,14.56
2023-02-01T14:13:39.471Z,14.53
2023-02-01T14:16:07.048Z,14.48
2023-02-01T14:18:42.338Z,14.39
2023-02-01T14:21:25.162Z,14.37
2023-02-01T14:23:55.083Z,14.32
2023-02-01T14:26:43.695Z,14.29
2023-02-01T14:29:20.928Z,14.33
2023-02-01T14:32:01.157Z,14.40
2023-02-01T14:34:44.984Z,14.44
2023-02-01T14:37:26.375Z,14.47
2023-02-01T14:40:04.674Z,14.50
2023-02-01T14:42:35.109Z,14.52
2023-02-01T14:45:20.632Z,14.41
2023-02-01T14:47:53.571Z,14.37
2023-02-01T14:50:38.823Z,14.34
2023-02-01T14:53:16.904Z,14.29
2023-02-01T14:56:05.701Z,14.32
2023-02-01T14:59:11.288Z,14.35
2023-02-01T15:01:47.499Z,14.40
2023-02-01T15:04:19.786Z,14.39
2023-02-01T15:06:58.692Z,14.39
2023-02-01T15:09:28.598Z,14.40
2023-02-01T15:12:13.841Z,14.41
2023-02-01T15:15:24.572Z,14.38
2023-02-01T15:18:01.203Z,14.39
2023-02-01T15:20:36.987Z,14.38
2023-02-01T15:23:09.178Z,14.40
2023-02-01T15:25:39.836Z,14.40
2023-02-01T15:28:14.581Z,14.40
2023-02-01T15:30:41.602Z,14.40
2023-02-01T15:33:10.025Z,14.30
2023-02-01T15:35:39.664Z,14.16
2023-02-01T15:38:24.847Z,14.02
2023-02-01T15:41:17.522Z,13.98
2023-02-01T15:43:56.720Z,14.05
2023-02-01T15:46:35.064Z,14.13
2023-02-01T15:49:02.045Z,14.15
2023-02-01T15:51:31.872Z,14.07
2023-02-01T15:54:06.003Z,13.88
2023-02-01T15:56:38.993Z,13.76
2023-02-01T15:59:16.186Z,13.72
2023-02-01T16:01:43.519Z,13.67
2023-02-01T16:04:34.245Z,13.65
2023-02-01T16:07:05.746Z,13.63
2023-02-01T16:09:54.088Z,13.59
2023-02-01T16:12:32.690Z,13.55
2023-02-01T16:14:59.705Z,13.51
2023-02-01T16:17:26.757Z,13.50
2023-02-01T16:19:54.021Z,13.45
2023-02-01T16:22:21.027Z,13.42
2023-02-01T16:24:47.927Z,13.36
2023-02-01T16:27:14.965Z,13.32
2023-02-01T16:29:43.274Z,13.29
2023-02-01T16:32:18.948Z,13.29
2023-02-01T16:34:47.564Z,13.35
2023-02-01T16:37:18.492Z,13.41
2023-02-01T16:39:45.543Z,13.45
2023-02-01T16:42:14.429Z,13.51
2023-02-01T16:44:43.468Z,13.56
2023-02-01T16:47:18.272Z,13.59
2023-02-01T16:49:46.257Z,13.63
2023-02-01T16:52:26.610Z,13.65
2023-02-01T16:54:54.235Z,13.67
2023-02-01T16:57:25.237Z,13.69
2023-02-01T16:59:52.599Z,13.69
2023-02-01T17:02:22.236Z,13.72
2023-02-01T17:04:50.220Z,13.72
2023-02-01T17:07:19.976Z,13.74
2023-02-01T17:09:48.276Z,13.76
2023-02-01T17:12:30.944Z,13.78
2023-02-01T17:14:59.342Z,13.78
2023-02-01T17:17:38.821Z,13.83
2023-02-01T17:20:07.614Z,13.86
2023-02-01T17:22:35.154Z,13.88
2023-02-01T17:25:02.470Z,13.92
2023-02-01T17:27:30.459Z,13.98
2023-02-01T17:29:57.538Z,14.02
2023-02-01T17:32:26.498Z,14.06
2023-02-01T17:34:53.542Z,14.14
2023-02-01T17:37:27.884Z,14.17
2023-02-01T17:39:55.091Z,14.23
2023-02-01T17:42:23.091Z,14.29
2023-02-01T17:44:52.974Z,14.33
2023-02-01T17:47:19.866Z,14.38
2023-02-01T17:49:46.984Z,14.42
2023-02-01T17:52:18.747Z,14.43
2023-02-01T17:54:48.171Z,14.50
2023-02-01T17:57:15.258Z,14.55
2023-02-01T17:59:42.459Z,14.63
2023-02-01T18:02:25.684Z,14.71
2023-02-01T18:04:53.385Z,14.78
2023-02-01T18:07:20.554Z,14.84
2023-02-01T18:09:47.682Z,14.90
2023-02-01T18:12:23.812Z,14.96
2023-02-01T18:14:50.783Z,15.03
2023-02-01T18:17:17.701Z,15.07
2023-02-01T18:19:44.699Z,15.12
2023-02-01T18:22:24.902Z,15.16
2023-02-01T18:24:51.852Z,15.20
2023-02-01T18:27:18.773Z,15.27
2023-02-01T18:29:45.663Z,15.32
2023-02-01T18:32:16.066Z,15.32
2023-02-01T18:34:43.740Z,15.32
2023-02-01T18:37:10.813Z,15.33
2023-02-01T18:39:39.658Z,15.33
2023-02-01T18:42:06.793Z,15.35
2023-02-01T18:44:33.624Z,15.33
2023-02-01T18:47:01.095Z,15.34
2023-02-01T18:49:27.956Z,15.35
2023-02-01T18:51:54.848Z,15.36
2023-02-01T18:54:21.741Z,15.39
2023-02-01T18:56:48.730Z,15.39
2023-02-01T18:59:17.892Z,15.39
2023-02-01T19:01:45.054Z,15.42
2023-02-01T19:04:16.800Z,15.45
2023-02-01T19:06:46.051Z,15.49
2023-02-01T19:09:13.249Z,15.53
2023-02-01T19:11:40.460Z,15.54
2023-02-01T19:14:07.640Z,15.55
2023-02-01T19:16:36.354Z,15.56
2023-02-01T19:19:03.708Z,15.67
2023-02-01T19:21:31.068Z,15.72
2023-02-01T19:23:58.331Z,15.77
2023-02-01T19:26:25.295Z,15.84
2023-02-01T19:28:52.325Z,15.85
2023-02-01T19:31:19.640Z,15.65
2023-02-01T19:33:47.051Z,15.71
2023-02-01T19:36:14.170Z,15.72
2023-02-01T19:38:41.302Z,15.85
2023-02-01T19:41:08.749Z,15.93
2023-02-01T19:43:37.265Z,15.95
2023-02-01T19:46:04.835Z,15.98
2023-02-01T19:48:32.154Z,15.98
2023-02-01T19:50:59.543Z,16.04
2023-02-01T19:53:28.289Z,16.07
2023-02-01T19:55:58.892Z,16.12
2023-02-01T19:58:28.565Z,16.14
2023-02-01T20:00:58.150Z,16.17
2023-02-01T20:03:25.300Z,16.21
2023-02-01T20:05:57.410Z,16.22
2023-02-01T20:08:25.846Z,16.27
2023-02-01T20:10:53.642Z,16.27
2023-02-01T20:13:21.841Z,16.25
2023-02-01T20:15:48.976Z,16.25
2023-02-01T20:18:16.302Z,16.23
2023-02-01T20:20:45.105Z,16.26
2023-02-01T20:23:12.514Z,16.25
2023-02-01T20:25:42.706Z,16.22
2023-02-01T20:28:09.910Z,16.22
2023-02-01T20:30:37.656Z,16.19
2023-02-01T20:33:06.085Z,16.19
2023-02-01T20:35:33.819Z,16.22
2023-02-01T20:38:02.511Z,16.22
2023-02-01T20:40:30.110Z,16.28
2023-02-01T20:42:58.813Z,16.35
2023-02-01T20:45:28.556Z,16.41
2023-02-01T20:47:58.795Z,16.48
2023-02-01T20:50:25.901Z,16.54
2023-02-01T20:52:53.796Z,16.60
2023-02-01T20:55:24.502Z,16.64
2023-02-01T20:57:55.435Z,16.69
2023-02-01T21:00:26.402Z,16.75
2023-02-01T21:02:53.771Z,16.79
2023-02-01T21:05:22.116Z,16.85
2023-02-01T21:07:52.222Z,16.90
2023-02-01T21:10:19.395Z,16.96
2023-02-01T21:12:48.023Z,17.01
2023-02-01T21:15:16.389Z,17.06
2023-02-01T21:17:43.939Z,17.09
2023-02-01T21:20:12.049Z,17.13
2023-02-01T21:22:39.251Z,17.17
2023-02-01T21:25:06.800Z,17.21
2023-02-01T21:27:34.021Z,17.24
2023-02-01T21:30:01.860Z,17.30
2023-02-01T21:32:29.468Z,17.31
2023-02-01T21:34:59.069Z,17.36
2023-02-01T21:37:27.891Z,17.39
2023-02-01T21:39:57.074Z,17.42
2023-02-01T21:42:26.858Z,17.45
2023-02-01T21:44:55.902Z,17.44
2023-02-01T21:47:25.940Z,17.43
2023-02-01T21:49:55.282Z,17.39
2023-02-01T21:52:23.635Z,17.39
2023-02-01T21:54:57.545Z,17.42
2023-02-01T21:57:24.671Z,17.45
2023-02-01T21:59:51.876Z,17.44
2023-02-01T22:02:19.235Z,17.45
2023-02-01T22:04:46.280Z,17.45
2023-02-01T22:07:13.731Z,17.44
2023-02-01T22:09:41.208Z,17.39
2023-02-01T22:12:13.002Z,17.41
2023-02-01T22:14:40.895Z,17.41
2023-02-01T22:17:07.867Z,17.39
2023-02-01T22:19:34.896Z,17.44
2023-02-01T22:22:02.203Z,17.37
2023-02-01T22:24:29.248Z,17.25
2023-02-01T22:26:56.229Z,17.15
2023-02-01T22:29:41.325Z,17.05
2023-02-01T22:32:08.910Z,16.99
2023-02-01T22:34:36.074Z,16.93
2023-02-01T22:37:03.443Z,16.85
2023-02-01T22:39:30.515Z,16.79
2023-02-01T22:41:57.788Z,16.75
2023-02-01T22:44:24.844Z,16.71
2023-02-01T22:46:51.750Z,16.65
2023-02-01T22:49:18.693Z,16.59
2023-02-01T22:51:46.555Z,16.55
2023-02-01T22:54:19.190Z,16.48
2023-02-01T22:56:46.183Z,16.46
2023-02-01T22:59:14.616Z,16.41
2023-02-01T23:01:42.255Z,16.36
2023-02-01T23:04:12.513Z,16.31
2023-02-01T23:06:39.616Z,16.27
2023-02-01T23:09:15.879Z,16.22
2023-02-01T23:11:43.732Z,16.17
2023-02-01T23:14:12.817Z,16.16
2023-02-01T23:16:41.270Z,16.12
2023-02-01T23:19:08.444Z,16.08
2023-02-01T23:21:36.032Z,16.04
2023-02-01T23:24:07.416Z,16.01
2023-02-01T23:26:34.875Z,15.97
2023-02-01T23:29:02.598Z,15.93
2023-02-01T23:31:32.043Z,15.89
2023-02-01T23:34:00.864Z,15.86
2023-02-01T23:36:28.961Z,15.83
2023-02-01T23:38:56.412Z,15.80
2023-02-01T23:41:24.425Z,15.77
2023-02-01T23:44:00.906Z,15.73
2023-02-01T23:46:36.922Z,15.70
2023-02-01T23:49:05.676Z,15.66
2023-02-01T23:51:33.302Z,15.64
2023-02-01T23:54:00.756Z,15.61
2023-02-01T23:56:33.656Z,15.56
2023-02-01T23:59:02.376Z,15.55
